createdAt,value
2022-09-15T00:00:53.362Z,3.60
2022-09-15T00:04:55.226Z,3.17
2022-09-15T00:08:57.107Z,2.72
2022-09-15T00:12:59.087Z,1.67
2022-09-15T00:17:00.996Z,2.92
2022-09-15T00:21:12.280Z,4.43
2022-09-15T00:25:15.267Z,1.92
2022-09-15T00:29:17.147Z,2.50
2022-09-15T00:33:20.683Z,5.18
2022-09-15T00:37:22.896Z,7.32
2022-09-15T00:41:25.354Z,2.20
2022-09-15T00:45:27.360Z,7.50
2022-09-15T00:49:35.609Z,3.65
2022-09-15T00:53:37.928Z,2.28
2022-09-15T00:57:50.959Z,6.28
2022-09-15T01:02:01.591Z,7.63
2022-09-15T01:06:15.630Z,5.70
2022-09-15T01:10:35.244Z,4.03
2022-09-15T01:14:37.282Z,5.13
2022-09-15T01:19:03.069Z,4.07
2022-09-15T01:23:27.281Z,3.08
2022-09-15T01:27:47.568Z,3.75
2022-09-15T01:32:16.064Z,5.13
2022-09-15T01:36:32.251Z,3.20
2022-09-15T01:40:41.039Z,3.90
2022-09-15T01:44:47.815Z,2.45
2022-09-15T01:48:52.233Z,2.08
2022-09-15T01:52:57.076Z,3.22
2022-09-15T01:56:59.163Z,3.97
2022-09-15T02:01:22.184Z,2.33
2022-09-15T02:05:40.122Z,4.57
2022-09-15T02:09:55.809Z,8.07
2022-09-15T02:14:12.430Z,7.97
2022-09-15T02:18:34.685Z,9.88
2022-09-15T02:22:41.000Z,3.15
2022-09-15T02:26:43.785Z,6.63
2022-09-15T02:30:48.602Z,2.58
2022-09-15T02:34:54.586Z,4.70
2022-09-15T02:39:03.644Z,6.10
2022-09-15T02:43:11.371Z,3.55
2022-09-15T02:47:13.551Z,4.55
2022-09-15T02:51:18.222Z,3.35
2022-09-15T02:55:20.094Z,2.88
2022-09-15T02:59:21.946Z,2.70
2022-09-15T03:03:24.447Z,1.65
2022-09-15T03:07:27.120Z,2.63
2022-09-15T03:11:30.239Z,2.13
2022-09-15T03:15:33.415Z,2.45
2022-09-15T03:19:35.322Z,3.40
2022-09-15T03:23:37.487Z,2.80
2022-09-15T03:27:40.070Z,2.35
2022-09-15T03:31:42.157Z,11.68
2022-09-15T03:35:46.550Z,2.10
2022-09-15T03:39:49.073Z,2.63
2022-09-15T03:43:52.107Z,2.85
2022-09-15T03:47:54.155Z,4.03
2022-09-15T03:51:56.672Z,1.67
2022-09-15T03:56:11.480Z,1.83
2022-09-15T04:00:14.183Z,1.60
2022-09-15T04:04:16.172Z,2.03
2022-09-15T04:08:18.038Z,3.00
2022-09-15T04:12:19.996Z,1.98
2022-09-15T04:16:23.960Z,3.47
2022-09-15T04:20:25.904Z,2.33
2022-09-15T04:24:27.919Z,2.25
2022-09-15T04:28:33.254Z,2.88
2022-09-15T04:32:35.779Z,3.15
2022-09-15T04:36:37.671Z,1.67
2022-09-15T04:40:39.528Z,3.25
2022-09-15T04:44:41.562Z,4.20
2022-09-15T04:48:45.557Z,6.50
2022-09-15T04:52:47.381Z,3.33
2022-09-15T04:56:49.489Z,9.05
2022-09-15T05:00:51.384Z,7.88
2022-09-15T05:04:53.263Z,8.85
2022-09-15T05:08:57.221Z,6.65
2022-09-15T05:12:59.391Z,6.93
2022-09-15T05:17:01.347Z,12.05
2022-09-15T05:21:05.338Z,15.18
2022-09-15T05:25:07.410Z,10.38
2022-09-15T05:29:09.307Z,5.55
2022-09-15T05:33:11.140Z,5.38
2022-09-15T05:37:13.125Z,3.47
2022-09-15T05:41:17.021Z,6.65
2022-09-15T05:45:18.908Z,2.50
2022-09-15T05:49:20.750Z,2.22
2022-09-15T05:53:24.041Z,2.47
2022-09-15T05:57:25.905Z,6.28
2022-09-15T06:01:29.986Z,3.78
2022-09-15T06:05:32.070Z,2.40
2022-09-15T06:09:34.753Z,2.20
2022-09-15T06:13:36.883Z,7.82
2022-09-15T06:17:39.899Z,5.30
2022-09-15T06:21:41.782Z,7.15
2022-09-15T06:25:43.667Z,9.85
2022-09-15T06:29:45.529Z,3.97
2022-09-15T06:33:51.501Z,7.20
2022-09-15T06:37:53.430Z,3.92
2022-09-15T06:42:04.789Z,3.20
2022-09-15T06:46:16.214Z,2.25
2022-09-15T06:50:18.176Z,1.55
2022-09-15T06:54:20.057Z,1.80
2022-09-15T06:58:21.912Z,5.10
2022-09-15T07:02:23.852Z,2.13
2022-09-15T07:06:29.793Z,1.67
2022-09-15T07:10:32.095Z,2.83
2022-09-15T07:14:34.120Z,2.90
2022-09-15T07:18:40.942Z,3.50
2022-09-15T07:22:44.822Z,2.92
2022-09-15T07:26:46.770Z,1.70
2022-09-15T07:30:50.976Z,2.55
2022-09-15T07:34:55.494Z,2.83
2022-09-15T07:39:00.092Z,2.53
2022-09-15T07:43:02.055Z,1.50
2022-09-15T07:47:03.980Z,8.43
2022-09-15T07:51:06.082Z,19.15
2022-09-15T07:55:09.361Z,18.95
2022-09-15T07:59:11.433Z,6.45
2022-09-15T08:03:14.206Z,4.78
2022-09-15T08:07:16.167Z,7.07
2022-09-15T08:11:19.965Z,8.35
2022-09-15T08:15:21.919Z,5.50
2022-09-15T08:19:23.798Z,10.75
2022-09-15T08:23:25.680Z,3.65
2022-09-15T08:27:27.577Z,1.77
2022-09-15T08:31:29.655Z,1.63
2022-09-15T08:35:32.615Z,2.67
2022-09-15T08:39:34.681Z,1.65
2022-09-15T08:43:43.161Z,6.88
2022-09-15T08:47:48.059Z,16.02
2022-09-15T08:51:52.141Z,6.97
2022-09-15T08:56:00.398Z,13.35
2022-09-15T09:00:02.579Z,10.60
2022-09-15T09:04:33.397Z,6.80
2022-09-15T09:08:44.659Z,5.00
2022-09-15T09:13:16.476Z,6.47
2022-09-15T09:17:33.482Z,4.50
2022-09-15T09:21:43.126Z,3.50
2022-09-15T09:25:45.776Z,2.95
2022-09-15T09:29:50.107Z,4.30
2022-09-15T09:34:18.410Z,1.70
2022-09-15T09:38:30.524Z,1.40
2022-09-15T09:42:37.227Z,4.00
2022-09-15T09:46:39.195Z,1.33
2022-09-15T09:50:44.526Z,9.77
2022-09-15T09:54:48.139Z,3.45
2022-09-15T09:58:50.195Z,3.63
2022-09-15T10:02:52.058Z,2.35
2022-09-15T10:06:56.562Z,2.00
2022-09-15T10:11:06.179Z,2.47
2022-09-15T10:15:24.370Z,6.60
2022-09-15T10:23:33.100Z,3.47
2022-09-15T10:27:36.849Z,3.97
2022-09-15T10:31:39.174Z,11.90
2022-09-15T10:35:42.569Z,3.05
2022-09-15T10:39:53.923Z,4.05
2022-09-15T10:44:18.482Z,8.77
2022-09-15T10:48:32.080Z,5.53
2022-09-15T10:53:01.677Z,11.40
2022-09-15T10:57:35.115Z,7.22
2022-09-15T11:01:36.951Z,1.33
2022-09-15T11:05:48.653Z,2.25
2022-09-15T11:10:03.228Z,6.57
2022-09-15T11:14:29.897Z,5.85
2022-09-15T11:18:54.619Z,6.65
2022-09-15T11:23:19.051Z,4.55
2022-09-15T11:27:54.029Z,4.28
2022-09-15T11:32:15.655Z,5.82
2022-09-15T11:36:39.156Z,7.10
2022-09-15T11:41:14.169Z,4.68
2022-09-15T11:45:21.677Z,7.55
2022-09-15T11:53:36.237Z,9.00
2022-09-15T11:57:50.550Z,7.70
2022-09-15T12:02:35.109Z,3.53
2022-09-15T12:06:45.780Z,9.23
2022-09-15T12:10:54.854Z,1.70
2022-09-15T12:14:58.026Z,2.85
2022-09-15T12:19:22.632Z,1.33
2022-09-15T12:23:32.958Z,7.00
2022-09-15T12:27:35.002Z,3.40
2022-09-15T12:31:39.105Z,2.13
2022-09-15T12:35:41.019Z,3.72
2022-09-15T12:39:47.186Z,4.40
2022-09-15T12:44:16.069Z,1.00
2022-09-15T12:48:36.687Z,2.15
2022-09-15T12:52:54.415Z,0.57
2022-09-15T12:56:57.518Z,0.60
2022-09-15T13:01:25.432Z,1.45
2022-09-15T13:05:42.116Z,2.78
2022-09-15T13:09:59.218Z,2.22
2022-09-15T13:14:03.758Z,0.50
2022-09-15T13:18:06.514Z,0.88
2022-09-15T13:22:11.404Z,0.93
2022-09-15T13:26:19.310Z,0.70
2022-09-15T13:30:24.330Z,2.13
2022-09-15T13:39:34.299Z,2.10
2022-09-15T13:43:59.370Z,1.25
2022-09-15T13:48:20.546Z,2.63
2022-09-15T13:53:06.922Z,2.47
2022-09-15T13:57:08.815Z,1.23
2022-09-15T14:01:12.357Z,2.53
2022-09-15T14:05:15.613Z,1.30
2022-09-15T14:09:30.069Z,1.48
2022-09-15T14:13:32.537Z,1.95
2022-09-15T14:17:45.265Z,1.98
2022-09-15T14:21:53.781Z,1.42
2022-09-15T14:26:02.916Z,0.93
2022-09-15T14:30:08.375Z,1.95
2022-09-15T14:34:24.888Z,1.38
2022-09-15T14:38:26.732Z,0.98
2022-09-15T14:42:40.055Z,1.17
2022-09-15T14:46:41.887Z,1.88
2022-09-15T14:50:46.471Z,2.05
2022-09-15T14:54:49.282Z,1.45
2022-09-15T14:58:53.229Z,2.20
2022-09-15T15:03:14.857Z,1.55
2022-09-15T15:07:30.910Z,1.38
2022-09-15T15:11:35.098Z,2.55
2022-09-15T15:15:38.609Z,1.85
2022-09-15T15:19:42.264Z,1.08
2022-09-15T15:23:47.235Z,1.60
2022-09-15T15:28:07.132Z,3.25
2022-09-15T15:32:20.462Z,3.30
2022-09-15T15:36:24.115Z,3.05
2022-09-15T15:40:26.175Z,2.00
2022-09-15T15:44:29.947Z,1.17
2022-09-15T15:48:37.865Z,4.82
2022-09-15T15:52:41.541Z,3.97
2022-09-15T15:56:43.469Z,1.33
2022-09-15T16:00:52.719Z,2.53
2022-09-15T16:04:55.049Z,3.67
2022-09-15T16:09:00.709Z,1.58
2022-09-15T16:13:02.566Z,2.05
2022-09-15T16:17:04.775Z,4.13
2022-09-15T16:21:07.330Z,2.55
2022-09-15T16:25:37.235Z,2.92
2022-09-15T16:29:39.082Z,2.92
2022-09-15T16:33:42.597Z,3.40
2022-09-15T16:37:44.490Z,1.20
2022-09-15T16:41:46.323Z,1.48
2022-09-15T16:45:49.220Z,1.60
2022-09-15T16:49:52.446Z,0.98
2022-09-15T16:53:54.361Z,2.53
2022-09-15T16:57:56.255Z,1.02
2022-09-15T17:01:58.159Z,2.53
2022-09-15T17:06:01.360Z,1.20
2022-09-15T17:10:03.434Z,5.28
2022-09-15T17:14:05.574Z,1.35
2022-09-15T17:18:10.025Z,1.10
2022-09-15T17:22:11.909Z,1.30
2022-09-15T17:26:21.249Z,1.20
2022-09-15T17:30:26.057Z,1.13
2022-09-15T17:34:27.949Z,0.85
2022-09-15T17:38:29.896Z,0.70
2022-09-15T17:42:31.889Z,1.20
2022-09-15T17:46:33.892Z,2.20
2022-09-15T17:50:38.182Z,3.40
2022-09-15T17:54:40.168Z,1.58
2022-09-15T17:58:42.687Z,1.02
2022-09-15T18:02:49.072Z,0.65
2022-09-15T18:06:50.966Z,0.70
2022-09-15T18:10:52.888Z,1.08
2022-09-15T18:14:54.747Z,0.93
2022-09-15T18:18:56.623Z,1.95
2022-09-15T18:23:00.345Z,0.50
2022-09-15T18:27:02.222Z,0.47
2022-09-15T18:31:04.203Z,0.40
2022-09-15T18:35:07.309Z,1.55
2022-09-15T18:39:11.993Z,1.20
2022-09-15T18:43:13.970Z,0.65
2022-09-15T18:47:15.839Z,0.73
2022-09-15T18:51:24.113Z,1.05
2022-09-15T18:55:31.400Z,0.57
2022-09-15T18:59:33.255Z,0.47
2022-09-15T19:03:35.405Z,0.40
2022-09-15T19:07:38.431Z,0.77
2022-09-15T19:11:40.268Z,1.95
2022-09-15T19:15:44.001Z,1.77
2022-09-15T19:19:46.516Z,2.40
2022-09-15T19:23:48.327Z,1.05
2022-09-15T19:27:50.581Z,1.75
2022-09-15T19:31:52.577Z,0.77
2022-09-15T19:36:10.886Z,1.27
2022-09-15T19:40:17.578Z,2.78
2022-09-15T19:44:19.546Z,1.40
2022-09-15T19:48:21.461Z,2.58
2022-09-15T19:52:23.363Z,0.43
2022-09-15T19:56:26.760Z,0.60
2022-09-15T20:00:28.629Z,0.52
2022-09-15T20:04:30.857Z,0.40
2022-09-15T20:08:32.930Z,0.75
2022-09-15T20:12:34.811Z,0.82
2022-09-15T20:16:36.814Z,1.70
2022-09-15T20:20:40.172Z,0.70
2022-09-15T20:24:42.070Z,1.00
2022-09-15T20:28:45.113Z,0.30
2022-09-15T20:32:47.505Z,0.25
2022-09-15T20:36:49.428Z,0.22
2022-09-15T20:40:54.971Z,0.38
2022-09-15T20:44:56.850Z,0.65
2022-09-15T20:48:58.723Z,0.50
2022-09-15T20:53:00.737Z,0.80
2022-09-15T20:57:02.680Z,0.20
2022-09-15T21:01:13.945Z,0.30
2022-09-15T21:05:15.881Z,0.75
2022-09-15T21:09:17.981Z,1.52
2022-09-15T21:13:19.929Z,0.22
2022-09-15T21:17:23.178Z,0.25
2022-09-15T21:21:27.588Z,0.38
2022-09-15T21:25:29.439Z,1.20
2022-09-15T21:29:31.611Z,0.30
2022-09-15T21:33:33.925Z,1.13
2022-09-15T21:37:35.874Z,0.30
2022-09-15T21:41:38.314Z,0.30
2022-09-15T21:45:40.259Z,0.38
2022-09-15T21:49:42.312Z,3.45
2022-09-15T21:53:44.179Z,1.05
2022-09-15T21:57:46.165Z,0.52
2022-09-15T22:01:48.681Z,0.80
2022-09-15T22:05:51.894Z,0.85
2022-09-15T22:09:53.934Z,0.88
2022-09-15T22:13:55.893Z,0.95
2022-09-15T22:17:57.853Z,1.20
2022-09-15T22:21:59.690Z,3.55
2022-09-15T22:26:03.859Z,1.77
2022-09-15T22:30:06.291Z,1.60
2022-09-15T22:34:08.143Z,1.08
2022-09-15T22:38:10.064Z,1.30
2022-09-15T22:42:11.911Z,1.52
2022-09-15T22:46:15.192Z,1.58
2022-09-15T22:50:17.144Z,1.30
2022-09-15T22:54:19.107Z,1.50
2022-09-15T22:58:21.166Z,2.65
2022-09-15T23:02:23.200Z,1.35
2022-09-15T23:06:27.119Z,1.50
2022-09-15T23:10:30.873Z,1.88
2022-09-15T23:14:32.748Z,1.30
2022-09-15T23:18:35.186Z,3.63
2022-09-15T23:22:37.565Z,3.28
2022-09-15T23:26:39.783Z,3.03
2022-09-15T23:30:41.635Z,3.72
2022-09-15T23:34:43.664Z,2.00
2022-09-15T23:38:46.900Z,3.60
2022-09-15T23:42:48.841Z,2.65
2022-09-15T23:46:50.778Z,2.58
2022-09-15T23:50:52.909Z,5.90
2022-09-15T23:54:54.783Z,3.08
2022-09-15T23:58:56.666Z,3.03
